Glenburnie, Maryland
Current Conditions -  °F | °C
As of 8:54 AM on Wednesday 26 Nov 2014 (Local Time) from KBWI Reporting Station
Moderate Rain Moderate Rain  
Wind Chill:   Ceiling: 1300
Heat Index:   Visibility: 2.5mi
Dew Point:   Wind: 3mph
Humidity: 89%   Direction: NA
Pressure: 30.11"   Gusts: NA
Location:  39.1648°N, 76.6418°W
Report Text: KBWI 261354Z VRB03KT 2 1/2SM R10/5500VP6000FT RA BR SCT008 OVC013 05/03 A3011 RMK AO2 PLB12E19 SLP196 P0011 T00500033
Loading
Personal Weather Stations






























Interactive Weather Map New forecast layout! Learn more

10-Day Weather Forecast

Advertisements
Track Severe Weather on mobile